createdAt,value
2022-11-30T00:01:25.339Z,17.92
2022-11-30T00:03:56.990Z,18.42
2022-11-30T00:06:27.376Z,19.30
2022-11-30T00:08:57.035Z,18.35
2022-11-30T00:11:27.022Z,19.55
2022-11-30T00:13:55.405Z,17.92
2022-11-30T00:16:27.586Z,18.20
2022-11-30T00:18:55.904Z,17.80
2022-11-30T00:21:25.475Z,18.48
2022-11-30T00:23:55.323Z,16.20
2022-11-30T00:26:24.211Z,14.30
2022-11-30T00:28:52.626Z,14.32
2022-11-30T00:31:21.522Z,14.33
2022-11-30T00:33:49.948Z,16.00
2022-11-30T00:36:19.896Z,14.77
2022-11-30T00:38:51.807Z,15.27
2022-11-30T00:41:22.101Z,15.73
2022-11-30T00:43:50.732Z,16.65
2022-11-30T00:46:20.410Z,16.38
2022-11-30T00:48:48.683Z,15.68
2022-11-30T00:51:18.621Z,15.38
2022-11-30T00:53:47.809Z,15.40
2022-11-30T00:56:16.430Z,14.52
2022-11-30T00:58:46.237Z,13.85
2022-11-30T01:01:14.520Z,14.75
2022-11-30T01:03:42.862Z,14.77
2022-11-30T01:06:12.019Z,15.35
2022-11-30T01:08:40.414Z,15.38
2022-11-30T01:11:13.665Z,13.52
2022-11-30T01:13:42.064Z,13.43
2022-11-30T01:16:15.792Z,13.30
2022-11-30T01:18:47.866Z,13.40
2022-11-30T01:21:20.032Z,12.35
2022-11-30T01:23:48.781Z,13.05
2022-11-30T01:26:18.426Z,11.98
2022-11-30T01:28:52.264Z,11.80
2022-11-30T01:31:24.798Z,11.27
2022-11-30T01:33:56.503Z,12.02
2022-11-30T01:36:26.782Z,11.10
2022-11-30T01:39:00.211Z,10.50
2022-11-30T01:41:30.325Z,10.03
2022-11-30T01:44:26.728Z,10.27
2022-11-30T01:47:00.047Z,10.13
2022-11-30T01:49:31.910Z,9.90
2022-11-30T01:52:04.183Z,10.90
2022-11-30T01:54:38.282Z,10.27
2022-11-30T01:57:14.064Z,10.93
2022-11-30T01:59:43.416Z,11.25
2022-11-30T02:02:13.238Z,11.40
2022-11-30T02:04:42.433Z,12.50
2022-11-30T02:07:11.412Z,12.05
2022-11-30T02:09:43.948Z,11.45
2022-11-30T02:12:22.033Z,10.87
2022-11-30T02:14:55.029Z,11.82
2022-11-30T02:17:33.485Z,11.50
2022-11-30T02:20:37.562Z,11.98
2022-11-30T02:23:30.425Z,10.35
2022-11-30T02:26:11.530Z,10.63
2022-11-30T02:29:07.819Z,10.60
2022-11-30T02:31:44.899Z,11.23
2022-11-30T02:34:17.191Z,11.32
2022-11-30T02:36:47.381Z,11.15
2022-11-30T02:39:17.104Z,11.07
2022-11-30T02:41:47.162Z,11.25
2022-11-30T02:44:18.011Z,11.00
2022-11-30T02:47:02.374Z,11.07
2022-11-30T02:49:37.831Z,11.43
2022-11-30T02:52:08.192Z,10.57
2022-11-30T02:54:36.782Z,11.20
2022-11-30T02:57:05.181Z,10.02
2022-11-30T02:59:35.144Z,9.60
2022-11-30T03:02:04.150Z,8.93
2022-11-30T03:04:32.540Z,8.93
2022-11-30T03:07:01.172Z,8.77
2022-11-30T03:09:30.654Z,8.85
2022-11-30T03:11:59.286Z,9.00
2022-11-30T03:14:28.115Z,8.13
2022-11-30T03:17:01.616Z,8.25
2022-11-30T03:19:30.255Z,8.93
2022-11-30T03:22:00.388Z,8.85
2022-11-30T03:24:29.029Z,9.20
2022-11-30T03:26:57.391Z,8.57
2022-11-30T03:29:25.757Z,9.07
2022-11-30T03:31:54.146Z,8.95
2022-11-30T03:34:26.593Z,9.15
2022-11-30T03:36:55.305Z,9.60
2022-11-30T03:39:24.524Z,9.40
2022-11-30T03:41:56.164Z,8.20
2022-11-30T03:44:24.935Z,9.60
2022-11-30T03:46:54.638Z,9.00
2022-11-30T03:49:24.612Z,8.55
2022-11-30T03:51:54.185Z,9.05
2022-11-30T03:54:22.975Z,8.18
2022-11-30T03:56:51.738Z,8.40
2022-11-30T03:59:20.063Z,8.82
2022-11-30T04:01:53.774Z,8.60
2022-11-30T04:04:23.530Z,8.02
2022-11-30T04:06:53.359Z,8.40
2022-11-30T04:09:21.602Z,8.30
2022-11-30T04:11:50.346Z,8.77
2022-11-30T04:14:30.075Z,9.18
2022-11-30T04:16:58.663Z,11.43
2022-11-30T04:19:31.431Z,10.20
2022-11-30T04:22:00.244Z,10.40
2022-11-30T04:24:28.509Z,10.13
2022-11-30T04:26:56.956Z,9.27
2022-11-30T04:29:25.931Z,5.38
2022-11-30T04:31:55.533Z,4.05
2022-11-30T04:34:23.785Z,3.38
2022-11-30T04:36:57.418Z,3.17
2022-11-30T04:39:28.451Z,3.00
2022-11-30T04:41:56.715Z,3.22
2022-11-30T04:44:24.949Z,3.42
2022-11-30T04:46:53.303Z,3.40
2022-11-30T04:49:21.595Z,3.43
2022-11-30T04:51:50.009Z,3.60
2022-11-30T04:54:20.006Z,3.80
2022-11-30T04:56:48.428Z,3.85
2022-11-30T04:59:17.081Z,4.22
2022-11-30T05:01:48.457Z,5.07
2022-11-30T05:04:17.290Z,4.15
2022-11-30T05:06:45.835Z,4.10
2022-11-30T05:09:14.547Z,4.18
2022-11-30T05:11:44.567Z,4.03
2022-11-30T05:14:12.826Z,4.53
2022-11-30T05:16:41.233Z,4.55
2022-11-30T05:19:09.606Z,3.80
2022-11-30T05:21:42.641Z,4.25
2022-11-30T05:24:18.946Z,4.63
2022-11-30T05:26:48.560Z,4.43
2022-11-30T05:29:16.820Z,4.00
2022-11-30T05:31:45.284Z,4.20
2022-11-30T05:34:13.590Z,4.15
2022-11-30T05:36:41.931Z,4.20
2022-11-30T05:39:10.204Z,4.43
2022-11-30T05:41:39.122Z,4.73
2022-11-30T05:44:10.138Z,4.45
2022-11-30T05:46:41.101Z,3.63
2022-11-30T05:49:10.829Z,3.88
2022-11-30T05:51:41.723Z,3.97
2022-11-30T05:54:10.004Z,3.80
2022-11-30T05:56:40.590Z,3.47
2022-11-30T05:59:11.266Z,4.22
2022-11-30T06:01:40.114Z,3.97
2022-11-30T06:04:09.099Z,3.67
2022-11-30T06:06:37.461Z,3.40
2022-11-30T06:09:05.942Z,3.40
2022-11-30T06:11:34.510Z,3.55
2022-11-30T06:14:04.013Z,3.40
2022-11-30T06:16:36.489Z,3.30
2022-11-30T06:19:09.996Z,3.60
2022-11-30T06:21:38.277Z,3.40
2022-11-30T06:24:07.159Z,3.28
2022-11-30T06:26:37.714Z,3.70
2022-11-30T06:29:06.022Z,3.00
2022-11-30T06:31:36.066Z,3.50
2022-11-30T06:34:05.608Z,2.88
2022-11-30T06:36:36.671Z,3.53
2022-11-30T06:39:06.861Z,2.90
2022-11-30T06:41:35.392Z,4.00
2022-11-30T06:44:05.105Z,3.33
2022-11-30T06:46:35.289Z,2.70
2022-11-30T06:49:06.290Z,3.25
2022-11-30T06:51:35.324Z,3.53
2022-11-30T06:54:03.841Z,3.67
2022-11-30T06:56:32.328Z,3.38
2022-11-30T06:59:04.200Z,3.58
2022-11-30T07:01:32.571Z,2.90
2022-11-30T07:04:01.169Z,3.30
2022-11-30T07:06:30.836Z,3.30
2022-11-30T07:09:00.964Z,3.00
2022-11-30T07:11:29.440Z,2.97
2022-11-30T07:13:59.148Z,2.67
2022-11-30T07:16:27.819Z,2.80
2022-11-30T07:18:56.344Z,2.90
2022-11-30T07:21:24.924Z,2.80
2022-11-30T07:24:14.530Z,2.72
2022-11-30T07:26:43.199Z,3.05
2022-11-30T07:29:11.434Z,2.80
2022-11-30T07:31:40.359Z,2.90
2022-11-30T07:34:10.229Z,3.63
2022-11-30T07:36:39.513Z,2.97
2022-11-30T07:39:09.608Z,2.97
2022-11-30T07:41:39.238Z,3.20
2022-11-30T07:44:11.697Z,2.90
2022-11-30T07:46:40.640Z,2.97
2022-11-30T07:49:10.566Z,2.97
2022-11-30T07:51:39.528Z,2.65
2022-11-30T07:54:09.494Z,2.92
2022-11-30T07:56:38.782Z,2.57
2022-11-30T07:59:07.353Z,2.50
2022-11-30T08:01:36.130Z,3.00
2022-11-30T08:04:04.946Z,3.05
2022-11-30T08:06:33.608Z,2.63
2022-11-30T08:09:03.218Z,3.00
2022-11-30T08:11:34.965Z,2.60
2022-11-30T08:14:05.791Z,2.80
2022-11-30T08:16:40.141Z,2.83
2022-11-30T08:19:08.546Z,2.83
2022-11-30T08:21:38.192Z,2.70
2022-11-30T08:24:07.143Z,2.75
2022-11-30T08:26:36.798Z,3.20
2022-11-30T08:29:05.234Z,2.38
2022-11-30T08:31:35.408Z,2.90
2022-11-30T08:34:09.263Z,3.10
2022-11-30T08:36:37.679Z,2.63
2022-11-30T08:39:08.528Z,2.85
2022-11-30T08:41:39.252Z,2.67
2022-11-30T08:44:08.962Z,2.40
2022-11-30T08:46:54.075Z,2.63
2022-11-30T08:49:24.492Z,3.20
2022-11-30T08:57:35.226Z,3.05
2022-11-30T09:00:03.885Z,2.90
2022-11-30T09:02:32.282Z,3.03
2022-11-30T09:05:00.674Z,3.47
2022-11-30T09:07:29.029Z,3.00
2022-11-30T09:09:57.597Z,2.63
2022-11-30T09:12:26.113Z,2.50
2022-11-30T09:14:58.304Z,2.97
2022-11-30T09:17:27.258Z,2.92
2022-11-30T09:19:56.087Z,3.00
2022-11-30T09:22:24.512Z,2.88
2022-11-30T09:24:53.333Z,2.80
2022-11-30T09:27:22.081Z,2.97
2022-11-30T09:29:52.366Z,3.15
2022-11-30T09:32:24.759Z,3.10
2022-11-30T09:34:53.641Z,3.00
2022-11-30T09:37:26.717Z,3.00
2022-11-30T09:39:55.311Z,2.65
2022-11-30T09:42:45.469Z,2.65
2022-11-30T09:45:18.797Z,2.97
2022-11-30T09:48:07.777Z,2.57
2022-11-30T09:50:41.861Z,2.50
2022-11-30T09:53:17.025Z,2.80
2022-11-30T09:55:45.899Z,2.30
2022-11-30T09:58:25.190Z,2.25
2022-11-30T10:00:53.543Z,2.38
2022-11-30T10:03:24.926Z,2.50
2022-11-30T10:06:00.922Z,1.90
2022-11-30T10:08:51.029Z,2.20
2022-11-30T10:11:41.979Z,1.88
2022-11-30T10:14:49.651Z,2.13
2022-11-30T10:17:26.726Z,2.03
2022-11-30T10:20:15.943Z,1.60
2022-11-30T10:23:07.276Z,2.03
2022-11-30T10:25:50.763Z,2.08
2022-11-30T10:31:16.331Z,2.13
2022-11-30T10:33:48.663Z,1.50
2022-11-30T10:36:27.905Z,1.50
2022-11-30T10:39:10.717Z,1.40
2022-11-30T10:41:48.970Z,1.70
2022-11-30T10:44:23.282Z,1.83
2022-11-30T10:46:59.332Z,1.98
2022-11-30T10:49:31.873Z,1.70
2022-11-30T10:52:07.058Z,1.58
2022-11-30T10:54:38.936Z,1.50
2022-11-30T10:57:09.783Z,1.45
2022-11-30T10:59:43.908Z,1.77
2022-11-30T11:02:36.930Z,1.83
2022-11-30T11:05:27.599Z,1.73
2022-11-30T11:08:06.311Z,1.45
2022-11-30T11:10:37.067Z,1.80
2022-11-30T11:13:06.487Z,1.65
2022-11-30T11:15:36.528Z,1.25
2022-11-30T11:18:23.641Z,1.30
2022-11-30T11:21:07.114Z,1.48
2022-11-30T11:23:41.763Z,1.50
2022-11-30T11:26:18.921Z,1.60
2022-11-30T11:28:51.386Z,1.23
2022-11-30T11:31:36.606Z,1.30
2022-11-30T11:34:09.041Z,1.23
2022-11-30T11:36:40.246Z,1.50
2022-11-30T11:39:28.548Z,1.10
2022-11-30T11:41:56.950Z,1.48
2022-11-30T11:44:28.250Z,1.25
2022-11-30T11:46:59.236Z,1.35
2022-11-30T11:49:29.382Z,1.63
2022-11-30T11:52:04.807Z,2.00
2022-11-30T11:54:40.547Z,1.60
2022-11-30T11:57:11.896Z,2.13
2022-11-30T11:59:47.559Z,1.70
2022-11-30T12:02:24.257Z,2.15
2022-11-30T12:04:55.541Z,2.30
2022-11-30T12:07:33.530Z,1.92
2022-11-30T12:10:43.613Z,1.90
2022-11-30T12:13:10.298Z,1.77
2022-11-30T12:15:49.662Z,1.92
2022-11-30T12:18:25.163Z,2.47
2022-11-30T12:21:01.031Z,2.13
2022-11-30T12:23:48.179Z,2.10
2022-11-30T12:26:27.337Z,2.10
2022-11-30T12:29:23.764Z,1.98
2022-11-30T12:32:08.708Z,2.20
2022-11-30T12:34:57.122Z,2.50
2022-11-30T12:37:37.104Z,2.20
2022-11-30T12:40:21.618Z,2.40
2022-11-30T12:42:58.131Z,3.05
2022-11-30T12:45:33.294Z,2.70
2022-11-30T12:48:09.937Z,2.10
2022-11-30T12:50:55.214Z,2.42
2022-11-30T12:53:31.519Z,2.10
2022-11-30T12:56:10.938Z,2.05
2022-11-30T12:58:48.798Z,2.13
2022-11-30T13:01:34.439Z,2.13
2022-11-30T13:04:09.537Z,2.30
2022-11-30T13:06:43.591Z,2.08
2022-11-30T13:09:19.038Z,1.90
2022-11-30T13:11:53.967Z,1.88
2022-11-30T13:14:26.051Z,2.15
2022-11-30T13:17:03.179Z,2.28
2022-11-30T13:19:46.708Z,1.80
2022-11-30T13:22:25.321Z,1.83
2022-11-30T13:25:03.738Z,1.70
2022-11-30T13:27:40.999Z,1.63
2022-11-30T13:30:24.366Z,1.70
2022-11-30T13:33:00.130Z,1.70
2022-11-30T13:35:56.708Z,1.50
2022-11-30T13:38:40.773Z,1.70
2022-11-30T13:41:10.884Z,2.08
2022-11-30T13:43:45.936Z,2.20
2022-11-30T13:46:20.038Z,2.10
2022-11-30T13:48:49.666Z,2.30
2022-11-30T13:51:37.151Z,1.90
2022-11-30T13:54:39.332Z,2.08
2022-11-30T13:57:32.704Z,1.75
2022-11-30T14:00:02.263Z,1.83
2022-11-30T14:03:16.179Z,1.48
2022-11-30T14:05:46.710Z,1.80
2022-11-30T14:08:41.362Z,1.63
2022-11-30T14:11:49.664Z,1.67
2022-11-30T14:14:46.894Z,1.40
2022-11-30T14:17:33.175Z,1.73
2022-11-30T14:20:10.003Z,1.63
2022-11-30T14:22:41.700Z,1.85
2022-11-30T14:25:15.756Z,1.87
2022-11-30T14:27:46.947Z,2.03
2022-11-30T14:30:20.019Z,2.05
2022-11-30T14:32:55.189Z,1.83
2022-11-30T14:35:24.948Z,2.17
2022-11-30T14:37:59.112Z,1.90
2022-11-30T14:40:29.904Z,2.30
2022-11-30T14:42:59.623Z,2.40
2022-11-30T14:45:30.915Z,2.15
2022-11-30T14:48:07.664Z,2.72
2022-11-30T14:50:38.693Z,2.47
2022-11-30T14:53:23.306Z,2.03
2022-11-30T14:55:57.405Z,2.17
2022-11-30T14:58:33.601Z,2.25
2022-11-30T15:01:04.951Z,1.50
2022-11-30T15:03:40.587Z,2.13
2022-11-30T15:06:10.428Z,1.90
2022-11-30T15:08:44.750Z,1.77
2022-11-30T15:11:15.011Z,2.33
2022-11-30T15:13:47.406Z,1.95
2022-11-30T15:16:22.313Z,1.73
2022-11-30T15:18:51.611Z,1.75
2022-11-30T15:21:23.634Z,1.88
2022-11-30T15:23:55.335Z,2.05
2022-11-30T15:26:28.284Z,2.42
2022-11-30T15:29:00.186Z,2.10
2022-11-30T15:31:34.085Z,2.10
2022-11-30T15:34:02.572Z,1.93
2022-11-30T15:36:38.242Z,1.98
2022-11-30T15:39:17.870Z,2.05
2022-11-30T15:41:46.368Z,2.55
2022-11-30T15:44:26.361Z,2.60
2022-11-30T15:47:00.165Z,2.00
2022-11-30T15:49:31.901Z,2.30
2022-11-30T15:52:04.874Z,2.00
2022-11-30T15:54:50.347Z,2.42
2022-11-30T15:57:19.653Z,2.58
2022-11-30T16:00:09.818Z,2.83
2022-11-30T16:02:39.058Z,3.33
2022-11-30T16:05:28.151Z,3.72
2022-11-30T16:08:00.023Z,3.72
2022-11-30T16:10:35.154Z,3.30
2022-11-30T16:13:04.250Z,3.00
2022-11-30T16:15:36.181Z,3.60
2022-11-30T16:18:14.771Z,4.60
2022-11-30T16:20:43.636Z,3.38
2022-11-30T16:23:14.497Z,3.38
2022-11-30T16:25:45.341Z,2.83
2022-11-30T16:28:17.725Z,3.10
2022-11-30T16:30:47.183Z,3.13
2022-11-30T16:33:16.744Z,7.40
2022-11-30T16:35:50.719Z,3.60
2022-11-30T16:38:19.293Z,3.35
2022-11-30T16:40:49.285Z,3.47
2022-11-30T16:43:19.499Z,3.05
2022-11-30T16:45:50.821Z,2.90
2022-11-30T16:48:19.992Z,3.10
2022-11-30T16:50:48.500Z,3.53
2022-11-30T16:53:17.885Z,3.58
2022-11-30T16:55:48.750Z,3.88
2022-11-30T16:58:19.980Z,3.97
2022-11-30T17:00:50.221Z,3.85
2022-11-30T17:03:26.278Z,3.97
2022-11-30T17:05:54.581Z,3.83
2022-11-30T17:08:22.916Z,4.05
2022-11-30T17:10:53.098Z,4.20
2022-11-30T17:13:23.260Z,5.05
2022-11-30T17:15:52.225Z,4.10
2022-11-30T17:18:20.981Z,3.60
2022-11-30T17:20:49.956Z,3.92
2022-11-30T17:23:18.478Z,2.97
2022-11-30T17:25:47.337Z,4.35
2022-11-30T17:28:15.805Z,3.92
2022-11-30T17:30:45.858Z,7.03
2022-11-30T17:33:16.218Z,7.93
2022-11-30T17:35:46.082Z,7.33
2022-11-30T17:38:14.403Z,6.07
2022-11-30T17:40:44.067Z,4.55
2022-11-30T17:43:13.617Z,4.70
2022-11-30T17:45:43.541Z,5.30
2022-11-30T17:48:14.211Z,4.97
2022-11-30T17:50:49.761Z,4.88
2022-11-30T17:53:18.495Z,5.38
2022-11-30T17:55:47.904Z,7.10
2022-11-30T17:58:16.319Z,9.98
2022-11-30T18:00:47.077Z,6.80
2022-11-30T18:03:18.225Z,8.93
2022-11-30T18:05:46.898Z,8.73
2022-11-30T18:08:16.341Z,7.78
2022-11-30T18:10:46.746Z,8.23
2022-11-30T18:13:16.476Z,6.30
2022-11-30T18:15:45.199Z,7.57
2022-11-30T18:18:15.806Z,6.40
2022-11-30T18:20:45.609Z,5.72
2022-11-30T18:23:13.992Z,5.60
2022-11-30T18:25:43.722Z,4.63
2022-11-30T18:28:11.999Z,4.75
2022-11-30T18:30:40.852Z,4.80
2022-11-30T18:33:09.329Z,4.88
2022-11-30T18:35:40.345Z,4.78
2022-11-30T18:38:10.683Z,4.90
2022-11-30T18:40:39.218Z,4.57
2022-11-30T18:43:09.686Z,4.65
2022-11-30T18:45:45.292Z,4.60
2022-11-30T18:48:13.793Z,4.85
2022-11-30T18:50:42.237Z,4.55
2022-11-30T18:53:16.734Z,4.40
2022-11-30T18:55:48.870Z,3.95
2022-11-30T18:58:17.196Z,3.80
2022-11-30T19:00:46.195Z,4.22
2022-11-30T19:03:17.353Z,3.67
2022-11-30T19:05:46.256Z,3.45
2022-11-30T19:08:16.747Z,3.75
2022-11-30T19:10:45.649Z,3.67
2022-11-30T19:13:14.179Z,3.55
2022-11-30T19:15:43.752Z,3.80
2022-11-30T19:18:13.305Z,3.90
2022-11-30T19:20:43.572Z,4.13
2022-11-30T19:23:13.146Z,3.83
2022-11-30T19:25:43.469Z,3.25
2022-11-30T19:28:11.831Z,3.17
2022-11-30T19:30:40.579Z,2.95
2022-11-30T19:33:09.143Z,3.30
2022-11-30T19:35:39.443Z,2.90
2022-11-30T19:38:14.837Z,3.35
2022-11-30T19:40:44.532Z,2.88
2022-11-30T19:43:12.758Z,3.38
2022-11-30T19:45:41.075Z,4.53
2022-11-30T19:48:11.164Z,3.43
2022-11-30T19:50:41.844Z,2.63
2022-11-30T19:53:10.369Z,3.33
2022-11-30T19:55:40.552Z,3.08
2022-11-30T19:58:11.501Z,3.40
2022-11-30T20:00:42.543Z,4.50
2022-11-30T20:03:11.007Z,4.45
2022-11-30T20:05:40.544Z,5.45
2022-11-30T20:08:09.020Z,4.45
2022-11-30T20:10:40.919Z,5.13
2022-11-30T20:13:10.586Z,3.88
2022-11-30T20:15:39.489Z,4.30
2022-11-30T20:18:08.764Z,4.83
2022-11-30T20:20:37.630Z,3.00
2022-11-30T20:23:08.127Z,5.97
2022-11-30T20:25:36.793Z,8.50
2022-11-30T20:28:09.628Z,10.13
2022-11-30T20:30:43.812Z,5.40
2022-11-30T20:33:13.352Z,5.53
2022-11-30T20:35:44.185Z,5.45
2022-11-30T20:38:12.481Z,4.57
2022-11-30T20:40:43.411Z,4.70
2022-11-30T20:43:13.948Z,5.40
2022-11-30T20:45:44.406Z,5.45
2022-11-30T20:48:12.981Z,6.05
2022-11-30T20:50:41.793Z,5.95
2022-11-30T20:53:10.143Z,7.00
2022-11-30T20:55:38.424Z,5.10
2022-11-30T20:58:06.850Z,4.20
2022-11-30T21:00:35.567Z,3.90
2022-11-30T21:03:05.743Z,4.20
2022-11-30T21:05:34.526Z,4.63
2022-11-30T21:08:05.049Z,4.78
2022-11-30T21:10:35.622Z,5.60
2022-11-30T21:13:04.264Z,5.60
2022-11-30T21:15:33.984Z,7.60
2022-11-30T21:18:02.587Z,8.65
2022-11-30T21:20:33.635Z,6.55
2022-11-30T21:23:01.886Z,5.15
2022-11-30T21:25:30.570Z,4.80
2022-11-30T21:27:58.876Z,4.43
2022-11-30T21:30:30.240Z,5.20
2022-11-30T21:32:59.057Z,6.25
2022-11-30T21:35:27.413Z,5.60
2022-11-30T21:37:57.660Z,4.65
2022-11-30T21:40:26.819Z,5.18
2022-11-30T21:42:57.743Z,5.80
2022-11-30T21:45:26.098Z,6.40
2022-11-30T21:47:54.433Z,6.60
2022-11-30T21:50:27.010Z,7.88
2022-11-30T21:52:57.018Z,6.33
2022-11-30T21:55:25.375Z,6.03
2022-11-30T21:57:56.255Z,5.13
2022-11-30T22:00:24.966Z,4.82
2022-11-30T22:02:53.829Z,4.65
2022-11-30T22:05:24.215Z,4.20
2022-11-30T22:07:55.705Z,3.42
2022-11-30T22:10:25.710Z,3.78
2022-11-30T22:12:54.602Z,3.90
2022-11-30T22:15:22.909Z,3.90
2022-11-30T22:17:53.096Z,3.95
2022-11-30T22:20:22.540Z,3.22
2022-11-30T22:22:51.414Z,2.67
2022-11-30T22:25:20.860Z,3.03
2022-11-30T22:27:50.513Z,2.60
2022-11-30T22:30:18.942Z,3.17
2022-11-30T22:32:49.502Z,3.50
2022-11-30T22:35:17.780Z,3.22
2022-11-30T22:37:47.488Z,3.03
2022-11-30T22:40:16.226Z,2.60
2022-11-30T22:42:46.523Z,2.60
2022-11-30T22:45:16.371Z,3.05
2022-11-30T22:47:45.693Z,3.55
2022-11-30T22:50:14.801Z,3.72
2022-11-30T22:53:02.510Z,3.70
2022-11-30T22:55:32.802Z,3.27
2022-11-30T22:58:01.337Z,3.03
2022-11-30T23:00:31.325Z,2.53
2022-11-30T23:02:59.730Z,3.08
2022-11-30T23:05:28.350Z,3.85
2022-11-30T23:07:56.921Z,6.40
2022-11-30T23:10:25.195Z,8.00
2022-11-30T23:13:00.678Z,8.83
2022-11-30T23:15:30.509Z,6.78
2022-11-30T23:17:58.957Z,4.35
2022-11-30T23:20:28.300Z,3.47
2022-11-30T23:22:57.689Z,4.07
2022-11-30T23:25:26.010Z,6.32
2022-11-30T23:27:54.337Z,5.97
2022-11-30T23:30:25.164Z,5.25
2022-11-30T23:32:58.444Z,4.20
2022-11-30T23:35:26.899Z,3.70
2022-11-30T23:37:55.393Z,3.55
2022-11-30T23:40:24.078Z,3.22
2022-11-30T23:42:52.730Z,3.00
2022-11-30T23:45:21.113Z,3.20
2022-11-30T23:47:49.806Z,3.25
2022-11-30T23:50:19.586Z,2.58
2022-11-30T23:52:48.028Z,3.35
2022-11-30T23:55:16.814Z,3.00
2022-11-30T23:57:45.143Z,2.60
